Leader, Canada
Current Conditions -  °F | °C
As of 6:00 PM on Saturday 22 Nov 2014 (Local Time) from CYKY Reporting Station
Light Snow Light Snow  
Wind Chill: 14°   Ceiling: 500
Heat Index: 27°   Visibility: 3mi
Dew Point: 25°   Wind: 17mph
Humidity: 93%   Direction: 360°N
Pressure: 29.17"   Gusts: 23mph
Location:  50.89°N, 109.54°W
Report Text: CYKY 230000Z 36015G20KT 3SM -SN OVC005 M03/M04 A2917 RMK SC8 SLP906
Loading
Personal Weather Stations






























Interactive Weather Map New forecast layout! Learn more

10-Day Weather Forecast

Advertisements
Track Severe Weather on mobile